sensor_id;sensor_type;location;lat;lon;timestamp;P1;durP1;ratioP1;P2;durP2;ratioP2
72960;SDS011;61141;46.204;19.774;2023-06-22T00:00:17;5.62;;;2.62;;
72960;SDS011;61141;46.204;19.774;2023-06-22T00:03:21;5.18;;;2.75;;
72960;SDS011;61141;46.204;19.774;2023-06-22T00:06:25;6.40;;;2.37;;
72960;SDS011;61141;46.204;19.774;2023-06-22T00:09:28;4.70;;;2.27;;
72960;SDS011;61141;46.204;19.774;2023-06-22T00:12:31;4.80;;;2.50;;
72960;SDS011;61141;46.204;19.774;2023-06-22T00:15:35;4.72;;;2.58;;
72960;SDS011;61141;46.204;19.774;2023-06-22T00:18:38;3.62;;;1.45;;
72960;SDS011;61141;46.204;19.774;2023-06-22T00:21:41;4.35;;;2.12;;
72960;SDS011;61141;46.204;19.774;2023-06-22T00:24:45;4.37;;;2.07;;
72960;SDS011;61141;46.204;19.774;2023-06-22T00:27:48;4.82;;;1.85;;
72960;SDS011;61141;46.204;19.774;2023-06-22T00:30:51;5.32;;;2.12;;
72960;SDS011;61141;46.204;19.774;2023-06-22T00:33:54;4.90;;;1.77;;
72960;SDS011;61141;46.204;19.774;2023-06-22T00:36:57;3.85;;;1.45;;
72960;SDS011;61141;46.204;19.774;2023-06-22T00:39:59;4.53;;;2.10;;
72960;SDS011;61141;46.204;19.774;2023-06-22T00:43:03;3.67;;;1.48;;
72960;SDS011;61141;46.204;19.774;2023-06-22T00:46:07;3.92;;;1.67;;
72960;SDS011;61141;46.204;19.774;2023-06-22T00:49:11;4.95;;;1.40;;
72960;SDS011;61141;46.204;19.774;2023-06-22T00:52:14;5.28;;;2.47;;
72960;SDS011;61141;46.204;19.774;2023-06-22T00:55:24;3.63;;;1.50;;
72960;SDS011;61141;46.204;19.774;2023-06-22T00:58:28;4.45;;;2.08;;
72960;SDS011;61141;46.204;19.774;2023-06-22T01:01:32;3.92;;;1.85;;
72960;SDS011;61141;46.204;19.774;2023-06-22T01:04:37;4.70;;;2.35;;
72960;SDS011;61141;46.204;19.774;2023-06-22T01:07:43;4.22;;;2.05;;
72960;SDS011;61141;46.204;19.774;2023-06-22T01:11:03;4.00;;;1.70;;
72960;SDS011;61141;46.204;19.774;2023-06-22T01:14:19;2.95;;;1.02;;
72960;SDS011;61141;46.204;19.774;2023-06-22T01:17:27;3.67;;;1.60;;
72960;SDS011;61141;46.204;19.774;2023-06-22T01:20:32;4.15;;;1.98;;
72960;SDS011;61141;46.204;19.774;2023-06-22T01:30:17;2.80;;;0.88;;
72960;SDS011;61141;46.204;19.774;2023-06-22T01:33:21;4.30;;;2.08;;
72960;SDS011;61141;46.204;19.774;2023-06-22T01:36:26;4.57;;;2.45;;
72960;SDS011;61141;46.204;19.774;2023-06-22T01:39:30;3.67;;;1.73;;
72960;SDS011;61141;46.204;19.774;2023-06-22T01:42:34;4.53;;;1.83;;
72960;SDS011;61141;46.204;19.774;2023-06-22T01:45:37;3.72;;;1.55;;
72960;SDS011;61141;46.204;19.774;2023-06-22T01:48:41;4.35;;;2.15;;
72960;SDS011;61141;46.204;19.774;2023-06-22T01:51:43;4.28;;;2.08;;
72960;SDS011;61141;46.204;19.774;2023-06-22T01:54:47;5.15;;;2.90;;
72960;SDS011;61141;46.204;19.774;2023-06-22T01:57:50;4.47;;;1.73;;
72960;SDS011;61141;46.204;19.774;2023-06-22T02:00:56;4.07;;;1.50;;
72960;SDS011;61141;46.204;19.774;2023-06-22T02:04:06;3.97;;;1.87;;
72960;SDS011;61141;46.204;19.774;2023-06-22T02:07:14;4.53;;;2.15;;
72960;SDS011;61141;46.204;19.774;2023-06-22T02:10:20;5.10;;;3.00;;
72960;SDS011;61141;46.204;19.774;2023-06-22T02:13:24;4.13;;;1.67;;
72960;SDS011;61141;46.204;19.774;2023-06-22T02:16:28;3.60;;;1.55;;
72960;SDS011;61141;46.204;19.774;2023-06-22T02:19:37;4.12;;;1.75;;
72960;SDS011;61141;46.204;19.774;2023-06-22T02:22:40;3.58;;;1.67;;
72960;SDS011;61141;46.204;19.774;2023-06-22T02:25:45;3.60;;;1.58;;
72960;SDS011;61141;46.204;19.774;2023-06-22T02:28:48;3.53;;;1.40;;
72960;SDS011;61141;46.204;19.774;2023-06-22T02:31:52;3.45;;;1.27;;
72960;SDS011;61141;46.204;19.774;2023-06-22T02:34:55;4.32;;;1.42;;
72960;SDS011;61141;46.204;19.774;2023-06-22T02:37:59;3.20;;;1.15;;
72960;SDS011;61141;46.204;19.774;2023-06-22T02:41:03;3.75;;;1.67;;
72960;SDS011;61141;46.204;19.774;2023-06-22T02:44:06;3.37;;;1.37;;
72960;SDS011;61141;46.204;19.774;2023-06-22T02:47:08;3.60;;;1.42;;
72960;SDS011;61141;46.204;19.774;2023-06-22T02:50:12;3.62;;;1.48;;
72960;SDS011;61141;46.204;19.774;2023-06-22T02:53:14;4.57;;;2.30;;
72960;SDS011;61141;46.204;19.774;2023-06-22T02:56:19;3.87;;;1.70;;
72960;SDS011;61141;46.204;19.774;2023-06-22T02:59:28;6.27;;;2.87;;
72960;SDS011;61141;46.204;19.774;2023-06-22T03:02:33;3.33;;;1.27;;
72960;SDS011;61141;46.204;19.774;2023-06-22T03:05:36;3.75;;;1.58;;
72960;SDS011;61141;46.204;19.774;2023-06-22T03:08:39;3.87;;;1.67;;
72960;SDS011;61141;46.204;19.774;2023-06-22T03:11:41;3.45;;;1.42;;
72960;SDS011;61141;46.204;19.774;2023-06-22T03:14:45;3.40;;;1.47;;
72960;SDS011;61141;46.204;19.774;2023-06-22T03:17:48;3.28;;;1.33;;
72960;SDS011;61141;46.204;19.774;2023-06-22T03:20:51;4.57;;;1.75;;
72960;SDS011;61141;46.204;19.774;2023-06-22T03:23:54;3.42;;;1.33;;
72960;SDS011;61141;46.204;19.774;2023-06-22T03:26:57;3.90;;;1.85;;
72960;SDS011;61141;46.204;19.774;2023-06-22T03:30:00;3.67;;;1.60;;
72960;SDS011;61141;46.204;19.774;2023-06-22T03:33:03;3.50;;;1.40;;
72960;SDS011;61141;46.204;19.774;2023-06-22T03:36:08;3.20;;;1.15;;
72960;SDS011;61141;46.204;19.774;2023-06-22T03:39:11;3.42;;;1.30;;
72960;SDS011;61141;46.204;19.774;2023-06-22T03:42:15;3.25;;;1.25;;
72960;SDS011;61141;46.204;19.774;2023-06-22T03:45:18;3.47;;;1.20;;
72960;SDS011;61141;46.204;19.774;2023-06-22T03:48:21;3.15;;;1.15;;
72960;SDS011;61141;46.204;19.774;2023-06-22T03:51:24;3.35;;;1.35;;
72960;SDS011;61141;46.204;19.774;2023-06-22T03:54:28;4.12;;;2.03;;
72960;SDS011;61141;46.204;19.774;2023-06-22T03:57:31;3.75;;;1.35;;
72960;SDS011;61141;46.204;19.774;2023-06-22T04:00:34;3.73;;;1.80;;
72960;SDS011;61141;46.204;19.774;2023-06-22T04:03:37;3.92;;;1.92;;
72960;SDS011;61141;46.204;19.774;2023-06-22T04:06:40;4.15;;;1.92;;
72960;SDS011;61141;46.204;19.774;2023-06-22T04:09:43;3.35;;;1.33;;
72960;SDS011;61141;46.204;19.774;2023-06-22T04:12:46;3.45;;;1.45;;
72960;SDS011;61141;46.204;19.774;2023-06-22T04:15:49;3.53;;;1.53;;
72960;SDS011;61141;46.204;19.774;2023-06-22T04:18:52;5.18;;;2.15;;
72960;SDS011;61141;46.204;19.774;2023-06-22T04:21:55;4.25;;;2.08;;
72960;SDS011;61141;46.204;19.774;2023-06-22T04:24:58;4.18;;;1.90;;
72960;SDS011;61141;46.204;19.774;2023-06-22T04:28:00;3.87;;;1.75;;
72960;SDS011;61141;46.204;19.774;2023-06-22T04:31:05;4.23;;;2.07;;
72960;SDS011;61141;46.204;19.774;2023-06-22T04:34:09;5.53;;;2.78;;
72960;SDS011;61141;46.204;19.774;2023-06-22T04:37:12;3.85;;;1.85;;
72960;SDS011;61141;46.204;19.774;2023-06-22T04:40:18;3.75;;;1.58;;
72960;SDS011;61141;46.204;19.774;2023-06-22T04:43:21;3.65;;;1.48;;
72960;SDS011;61141;46.204;19.774;2023-06-22T04:46:24;3.67;;;1.63;;
72960;SDS011;61141;46.204;19.774;2023-06-22T04:49:27;3.90;;;1.52;;
72960;SDS011;61141;46.204;19.774;2023-06-22T04:52:38;3.83;;;1.60;;
72960;SDS011;61141;46.204;19.774;2023-06-22T04:55:41;4.05;;;1.85;;
72960;SDS011;61141;46.204;19.774;2023-06-22T04:58:48;3.75;;;1.65;;
72960;SDS011;61141;46.204;19.774;2023-06-22T05:01:50;4.13;;;2.13;;
72960;SDS011;61141;46.204;19.774;2023-06-22T05:04:54;3.97;;;1.90;;
72960;SDS011;61141;46.204;19.774;2023-06-22T05:08:00;4.20;;;2.25;;
72960;SDS011;61141;46.204;19.774;2023-06-22T05:11:03;4.50;;;2.28;;
72960;SDS011;61141;46.204;19.774;2023-06-22T05:14:07;4.05;;;1.85;;
72960;SDS011;61141;46.204;19.774;2023-06-22T05:17:10;4.23;;;2.03;;
72960;SDS011;61141;46.204;19.774;2023-06-22T05:20:17;3.87;;;1.90;;
72960;SDS011;61141;46.204;19.774;2023-06-22T05:23:21;3.72;;;1.67;;
72960;SDS011;61141;46.204;19.774;2023-06-22T05:26:23;5.62;;;2.45;;
72960;SDS011;61141;46.204;19.774;2023-06-22T05:29:26;3.97;;;1.90;;
72960;SDS011;61141;46.204;19.774;2023-06-22T05:32:29;4.33;;;2.17;;
72960;SDS011;61141;46.204;19.774;2023-06-22T05:35:32;4.70;;;2.45;;
72960;SDS011;61141;46.204;19.774;2023-06-22T05:38:35;4.00;;;1.62;;
72960;SDS011;61141;46.204;19.774;2023-06-22T05:41:39;4.45;;;2.08;;
72960;SDS011;61141;46.204;19.774;2023-06-22T05:44:42;5.32;;;2.80;;
72960;SDS011;61141;46.204;19.774;2023-06-22T05:47:44;3.80;;;1.83;;
72960;SDS011;61141;46.204;19.774;2023-06-22T05:55:17;4.12;;;2.08;;
72960;SDS011;61141;46.204;19.774;2023-06-22T05:58:21;3.97;;;1.90;;
72960;SDS011;61141;46.204;19.774;2023-06-22T06:01:24;5.00;;;2.45;;
72960;SDS011;61141;46.204;19.774;2023-06-22T06:04:28;5.70;;;2.67;;
72960;SDS011;61141;46.204;19.774;2023-06-22T06:07:31;4.05;;;2.00;;
72960;SDS011;61141;46.204;19.774;2023-06-22T06:10:36;3.67;;;1.65;;
72960;SDS011;61141;46.204;19.774;2023-06-22T06:13:39;4.43;;;2.20;;
72960;SDS011;61141;46.204;19.774;2023-06-22T06:16:42;4.97;;;2.35;;
72960;SDS011;61141;46.204;19.774;2023-06-22T06:19:45;4.03;;;1.93;;
72960;SDS011;61141;46.204;19.774;2023-06-22T06:22:48;4.93;;;2.40;;
72960;SDS011;61141;46.204;19.774;2023-06-22T06:25:51;4.68;;;2.15;;
72960;SDS011;61141;46.204;19.774;2023-06-22T06:28:55;5.10;;;1.67;;
72960;SDS011;61141;46.204;19.774;2023-06-22T06:31:59;4.32;;;2.12;;
72960;SDS011;61141;46.204;19.774;2023-06-22T06:35:02;4.50;;;1.97;;
72960;SDS011;61141;46.204;19.774;2023-06-22T06:38:04;5.10;;;1.90;;
72960;SDS011;61141;46.204;19.774;2023-06-22T06:41:07;5.03;;;2.25;;
72960;SDS011;61141;46.204;19.774;2023-06-22T06:44:10;5.07;;;2.95;;
72960;SDS011;61141;46.204;19.774;2023-06-22T06:47:13;4.87;;;3.03;;
72960;SDS011;61141;46.204;19.774;2023-06-22T06:50:16;3.90;;;1.63;;
72960;SDS011;61141;46.204;19.774;2023-06-22T06:53:19;4.43;;;2.05;;
72960;SDS011;61141;46.204;19.774;2023-06-22T06:56:22;5.05;;;2.97;;
72960;SDS011;61141;46.204;19.774;2023-06-22T06:59:25;9.18;;;2.83;;
72960;SDS011;61141;46.204;19.774;2023-06-22T07:02:28;4.80;;;2.47;;
72960;SDS011;61141;46.204;19.774;2023-06-22T07:05:31;5.90;;;2.17;;
72960;SDS011;61141;46.204;19.774;2023-06-22T07:08:34;4.47;;;1.95;;
72960;SDS011;61141;46.204;19.774;2023-06-22T07:11:38;5.45;;;3.40;;
72960;SDS011;61141;46.204;19.774;2023-06-22T07:14:41;4.55;;;2.65;;
72960;SDS011;61141;46.204;19.774;2023-06-22T07:17:44;4.53;;;2.10;;
72960;SDS011;61141;46.204;19.774;2023-06-22T07:20:47;5.53;;;2.90;;
72960;SDS011;61141;46.204;19.774;2023-06-22T07:23:50;4.90;;;2.90;;
72960;SDS011;61141;46.204;19.774;2023-06-22T07:26:52;6.00;;;2.60;;
72960;SDS011;61141;46.204;19.774;2023-06-22T07:29:55;4.87;;;2.42;;
72960;SDS011;61141;46.204;19.774;2023-06-22T07:32:58;4.75;;;2.35;;
72960;SDS011;61141;46.204;19.774;2023-06-22T07:36:07;5.43;;;3.67;;
72960;SDS011;61141;46.204;19.774;2023-06-22T07:39:10;4.57;;;2.50;;
72960;SDS011;61141;46.204;19.774;2023-06-22T07:42:14;4.75;;;2.45;;
72960;SDS011;61141;46.204;19.774;2023-06-22T07:45:21;4.12;;;2.03;;
72960;SDS011;61141;46.204;19.774;2023-06-22T07:48:24;3.97;;;1.75;;
72960;SDS011;61141;46.204;19.774;2023-06-22T07:51:27;4.30;;;2.07;;
72960;SDS011;61141;46.204;19.774;2023-06-22T07:54:30;5.00;;;2.08;;
72960;SDS011;61141;46.204;19.774;2023-06-22T07:57:32;4.78;;;2.55;;
72960;SDS011;61141;46.204;19.774;2023-06-22T08:00:37;5.32;;;2.70;;
72960;SDS011;61141;46.204;19.774;2023-06-22T08:03:40;4.28;;;2.20;;
72960;SDS011;61141;46.204;19.774;2023-06-22T08:06:42;5.13;;;2.17;;
72960;SDS011;61141;46.204;19.774;2023-06-22T08:09:47;6.37;;;2.45;;
72960;SDS011;61141;46.204;19.774;2023-06-22T08:12:51;6.50;;;3.83;;
72960;SDS011;61141;46.204;19.774;2023-06-22T08:15:55;4.68;;;2.42;;
72960;SDS011;61141;46.204;19.774;2023-06-22T08:18:57;4.80;;;2.60;;
72960;SDS011;61141;46.204;19.774;2023-06-22T08:22:00;5.23;;;2.83;;
72960;SDS011;61141;46.204;19.774;2023-06-22T08:25:03;4.95;;;2.87;;
72960;SDS011;61141;46.204;19.774;2023-06-22T08:28:06;4.82;;;2.85;;
72960;SDS011;61141;46.204;19.774;2023-06-22T08:31:09;5.30;;;2.12;;
72960;SDS011;61141;46.204;19.774;2023-06-22T08:34:14;4.47;;;2.40;;
72960;SDS011;61141;46.204;19.774;2023-06-22T08:37:19;6.83;;;3.50;;
72960;SDS011;61141;46.204;19.774;2023-06-22T08:40:22;6.30;;;2.85;;
72960;SDS011;61141;46.204;19.774;2023-06-22T08:43:25;4.53;;;2.25;;
72960;SDS011;61141;46.204;19.774;2023-06-22T08:46:28;5.70;;;2.47;;
72960;SDS011;61141;46.204;19.774;2023-06-22T08:49:35;5.30;;;3.00;;
72960;SDS011;61141;46.204;19.774;2023-06-22T08:52:39;6.10;;;3.10;;
72960;SDS011;61141;46.204;19.774;2023-06-22T08:55:43;4.75;;;2.12;;
72960;SDS011;61141;46.204;19.774;2023-06-22T09:02:11;5.00;;;2.30;;
72960;SDS011;61141;46.204;19.774;2023-06-22T09:05:15;5.53;;;3.53;;
72960;SDS011;61141;46.204;19.774;2023-06-22T09:08:18;5.27;;;3.40;;
72960;SDS011;61141;46.204;19.774;2023-06-22T09:11:21;5.47;;;2.97;;
72960;SDS011;61141;46.204;19.774;2023-06-22T09:14:24;5.53;;;3.28;;
72960;SDS011;61141;46.204;19.774;2023-06-22T09:17:27;6.03;;;3.20;;
72960;SDS011;61141;46.204;19.774;2023-06-22T09:20:30;6.37;;;3.65;;
72960;SDS011;61141;46.204;19.774;2023-06-22T09:23:34;6.33;;;3.17;;
72960;SDS011;61141;46.204;19.774;2023-06-22T09:26:36;5.18;;;2.87;;
72960;SDS011;61141;46.204;19.774;2023-06-22T09:29:40;6.85;;;3.20;;
72960;SDS011;61141;46.204;19.774;2023-06-22T09:32:42;7.90;;;3.55;;
72960;SDS011;61141;46.204;19.774;2023-06-22T09:35:46;4.43;;;2.17;;
72960;SDS011;61141;46.204;19.774;2023-06-22T09:38:49;4.80;;;2.63;;
72960;SDS011;61141;46.204;19.774;2023-06-22T09:41:58;4.87;;;2.75;;
72960;SDS011;61141;46.204;19.774;2023-06-22T09:45:01;6.57;;;2.22;;
72960;SDS011;61141;46.204;19.774;2023-06-22T09:48:05;5.07;;;3.05;;
72960;SDS011;61141;46.204;19.774;2023-06-22T09:51:08;4.78;;;2.60;;
72960;SDS011;61141;46.204;19.774;2023-06-22T09:54:10;5.60;;;3.03;;
72960;SDS011;61141;46.204;19.774;2023-06-22T09:57:13;5.82;;;3.50;;
72960;SDS011;61141;46.204;19.774;2023-06-22T10:00:16;5.03;;;2.87;;
72960;SDS011;61141;46.204;19.774;2023-06-22T10:03:20;4.93;;;2.95;;
72960;SDS011;61141;46.204;19.774;2023-06-22T10:06:23;5.25;;;3.25;;
72960;SDS011;61141;46.204;19.774;2023-06-22T10:09:27;5.67;;;3.30;;
72960;SDS011;61141;46.204;19.774;2023-06-22T10:12:30;5.78;;;3.10;;
72960;SDS011;61141;46.204;19.774;2023-06-22T10:15:33;5.50;;;3.37;;
72960;SDS011;61141;46.204;19.774;2023-06-22T10:18:35;4.95;;;2.58;;
72960;SDS011;61141;46.204;19.774;2023-06-22T10:21:38;5.12;;;2.83;;
72960;SDS011;61141;46.204;19.774;2023-06-22T10:24:41;6.57;;;4.10;;
72960;SDS011;61141;46.204;19.774;2023-06-22T10:27:48;4.85;;;2.78;;
72960;SDS011;61141;46.204;19.774;2023-06-22T10:30:50;7.00;;;3.35;;
72960;SDS011;61141;46.204;19.774;2023-06-22T10:33:54;4.82;;;2.80;;
72960;SDS011;61141;46.204;19.774;2023-06-22T10:36:57;4.97;;;2.75;;
72960;SDS011;61141;46.204;19.774;2023-06-22T10:40:00;4.97;;;2.80;;
72960;SDS011;61141;46.204;19.774;2023-06-22T10:43:03;4.95;;;2.55;;
72960;SDS011;61141;46.204;19.774;2023-06-22T10:46:06;7.15;;;4.50;;
72960;SDS011;61141;46.204;19.774;2023-06-22T10:49:09;5.20;;;2.97;;
72960;SDS011;61141;46.204;19.774;2023-06-22T10:52:12;6.78;;;3.85;;
72960;SDS011;61141;46.204;19.774;2023-06-22T10:55:15;6.80;;;3.57;;
72960;SDS011;61141;46.204;19.774;2023-06-22T10:58:18;4.82;;;2.80;;
72960;SDS011;61141;46.204;19.774;2023-06-22T11:01:21;6.00;;;3.25;;
72960;SDS011;61141;46.204;19.774;2023-06-22T11:04:27;5.60;;;3.42;;
72960;SDS011;61141;46.204;19.774;2023-06-22T11:07:30;6.60;;;3.78;;
72960;SDS011;61141;46.204;19.774;2023-06-22T11:10:33;6.30;;;2.93;;
72960;SDS011;61141;46.204;19.774;2023-06-22T11:13:36;5.57;;;3.42;;
72960;SDS011;61141;46.204;19.774;2023-06-22T11:16:39;5.20;;;2.95;;
72960;SDS011;61141;46.204;19.774;2023-06-22T11:19:42;5.10;;;3.12;;
72960;SDS011;61141;46.204;19.774;2023-06-22T11:22:47;5.28;;;3.20;;
72960;SDS011;61141;46.204;19.774;2023-06-22T11:25:49;6.30;;;4.03;;
72960;SDS011;61141;46.204;19.774;2023-06-22T11:28:53;5.50;;;3.28;;
72960;SDS011;61141;46.204;19.774;2023-06-22T11:31:56;5.43;;;2.95;;
72960;SDS011;61141;46.204;19.774;2023-06-22T11:34:59;5.57;;;3.42;;
72960;SDS011;61141;46.204;19.774;2023-06-22T11:38:01;5.40;;;3.22;;
72960;SDS011;61141;46.204;19.774;2023-06-22T11:41:06;5.03;;;2.93;;
72960;SDS011;61141;46.204;19.774;2023-06-22T11:44:09;6.20;;;3.70;;
72960;SDS011;61141;46.204;19.774;2023-06-22T11:47:12;7.47;;;4.47;;
72960;SDS011;61141;46.204;19.774;2023-06-22T11:50:15;5.80;;;3.55;;
72960;SDS011;61141;46.204;19.774;2023-06-22T11:53:18;6.05;;;2.90;;
72960;SDS011;61141;46.204;19.774;2023-06-22T11:56:23;5.67;;;3.43;;
72960;SDS011;61141;46.204;19.774;2023-06-22T11:59:26;4.93;;;2.65;;
72960;SDS011;61141;46.204;19.774;2023-06-22T12:02:29;5.50;;;2.90;;
72960;SDS011;61141;46.204;19.774;2023-06-22T12:05:32;5.55;;;3.17;;
72960;SDS011;61141;46.204;19.774;2023-06-22T12:08:35;5.85;;;3.35;;
72960;SDS011;61141;46.204;19.774;2023-06-22T12:11:38;6.40;;;3.83;;
72960;SDS011;61141;46.204;19.774;2023-06-22T12:14:40;5.87;;;3.90;;
72960;SDS011;61141;46.204;19.774;2023-06-22T12:17:43;6.03;;;4.00;;
72960;SDS011;61141;46.204;19.774;2023-06-22T12:20:46;6.20;;;3.85;;
72960;SDS011;61141;46.204;19.774;2023-06-22T12:23:50;5.85;;;3.40;;
72960;SDS011;61141;46.204;19.774;2023-06-22T12:26:52;5.07;;;3.03;;
72960;SDS011;61141;46.204;19.774;2023-06-22T12:29:58;9.63;;;3.62;;
72960;SDS011;61141;46.204;19.774;2023-06-22T12:33:00;6.32;;;3.58;;
72960;SDS011;61141;46.204;19.774;2023-06-22T12:36:03;5.60;;;3.15;;
72960;SDS011;61141;46.204;19.774;2023-06-22T12:39:07;8.93;;;4.62;;
72960;SDS011;61141;46.204;19.774;2023-06-22T12:42:10;6.70;;;4.27;;
72960;SDS011;61141;46.204;19.774;2023-06-22T12:45:14;6.18;;;3.92;;
72960;SDS011;61141;46.204;19.774;2023-06-22T12:48:17;5.35;;;3.12;;
72960;SDS011;61141;46.204;19.774;2023-06-22T12:51:20;6.03;;;3.62;;
72960;SDS011;61141;46.204;19.774;2023-06-22T12:54:24;5.45;;;3.20;;
72960;SDS011;61141;46.204;19.774;2023-06-22T12:57:27;5.53;;;3.27;;
72960;SDS011;61141;46.204;19.774;2023-06-22T13:00:30;6.35;;;4.28;;
72960;SDS011;61141;46.204;19.774;2023-06-22T13:03:33;6.32;;;3.45;;
72960;SDS011;61141;46.204;19.774;2023-06-22T13:06:36;6.95;;;3.60;;
72960;SDS011;61141;46.204;19.774;2023-06-22T13:09:39;4.95;;;2.78;;
72960;SDS011;61141;46.204;19.774;2023-06-22T13:12:42;5.50;;;3.57;;
72960;SDS011;61141;46.204;19.774;2023-06-22T13:15:45;5.60;;;3.22;;
72960;SDS011;61141;46.204;19.774;2023-06-22T13:18:48;6.30;;;4.03;;
72960;SDS011;61141;46.204;19.774;2023-06-22T13:21:50;5.22;;;3.28;;
72960;SDS011;61141;46.204;19.774;2023-06-22T13:24:53;5.22;;;2.87;;
72960;SDS011;61141;46.204;19.774;2023-06-22T13:27:57;6.43;;;3.83;;
72960;SDS011;61141;46.204;19.774;2023-06-22T13:31:00;5.35;;;3.15;;
72960;SDS011;61141;46.204;19.774;2023-06-22T13:34:03;5.97;;;3.58;;
72960;SDS011;61141;46.204;19.774;2023-06-22T13:37:06;5.35;;;2.78;;
72960;SDS011;61141;46.204;19.774;2023-06-22T13:40:09;5.60;;;3.35;;
72960;SDS011;61141;46.204;19.774;2023-06-22T13:43:12;6.50;;;4.07;;
72960;SDS011;61141;46.204;19.774;2023-06-22T13:46:15;5.22;;;3.15;;
72960;SDS011;61141;46.204;19.774;2023-06-22T13:49:18;6.50;;;4.32;;
72960;SDS011;61141;46.204;19.774;2023-06-22T13:52:21;6.85;;;4.55;;
72960;SDS011;61141;46.204;19.774;2023-06-22T13:55:24;5.47;;;3.17;;
72960;SDS011;61141;46.204;19.774;2023-06-22T13:58:26;6.23;;;4.03;;
72960;SDS011;61141;46.204;19.774;2023-06-22T14:01:29;7.65;;;4.40;;
72960;SDS011;61141;46.204;19.774;2023-06-22T14:04:32;6.10;;;3.50;;
72960;SDS011;61141;46.204;19.774;2023-06-22T14:07:35;6.62;;;3.87;;
72960;SDS011;61141;46.204;19.774;2023-06-22T14:10:39;8.90;;;4.75;;
72960;SDS011;61141;46.204;19.774;2023-06-22T14:13:42;5.83;;;3.50;;
72960;SDS011;61141;46.204;19.774;2023-06-22T14:16:45;6.80;;;4.30;;
72960;SDS011;61141;46.204;19.774;2023-06-22T14:19:48;6.00;;;3.70;;
72960;SDS011;61141;46.204;19.774;2023-06-22T14:22:51;6.00;;;3.70;;
72960;SDS011;61141;46.204;19.774;2023-06-22T14:25:54;6.20;;;4.25;;
72960;SDS011;61141;46.204;19.774;2023-06-22T14:28:57;6.80;;;4.33;;
72960;SDS011;61141;46.204;19.774;2023-06-22T14:32:00;6.55;;;4.20;;
72960;SDS011;61141;46.204;19.774;2023-06-22T14:35:03;6.70;;;4.57;;
72960;SDS011;61141;46.204;19.774;2023-06-22T14:38:06;5.97;;;3.78;;
72960;SDS011;61141;46.204;19.774;2023-06-22T14:41:09;7.75;;;5.15;;
72960;SDS011;61141;46.204;19.774;2023-06-22T14:44:16;5.57;;;3.37;;
72960;SDS011;61141;46.204;19.774;2023-06-22T14:47:19;7.20;;;4.20;;
72960;SDS011;61141;46.204;19.774;2023-06-22T14:50:23;5.97;;;3.50;;
72960;SDS011;61141;46.204;19.774;2023-06-22T14:53:26;6.22;;;3.85;;
72960;SDS011;61141;46.204;19.774;2023-06-22T14:56:29;6.25;;;4.12;;
72960;SDS011;61141;46.204;19.774;2023-06-22T14:59:34;6.20;;;3.67;;
72960;SDS011;61141;46.204;19.774;2023-06-22T15:02:37;6.03;;;3.70;;
72960;SDS011;61141;46.204;19.774;2023-06-22T15:05:40;6.93;;;4.62;;
72960;SDS011;61141;46.204;19.774;2023-06-22T15:08:42;6.47;;;4.53;;
72960;SDS011;61141;46.204;19.774;2023-06-22T15:11:45;6.10;;;4.22;;
72960;SDS011;61141;46.204;19.774;2023-06-22T15:14:48;6.33;;;3.57;;
72960;SDS011;61141;46.204;19.774;2023-06-22T15:17:51;5.57;;;3.75;;
72960;SDS011;61141;46.204;19.774;2023-06-22T15:20:54;6.00;;;4.03;;
72960;SDS011;61141;46.204;19.774;2023-06-22T15:23:58;6.57;;;4.15;;
72960;SDS011;61141;46.204;19.774;2023-06-22T15:27:00;6.43;;;4.43;;
72960;SDS011;61141;46.204;19.774;2023-06-22T15:30:04;6.20;;;3.97;;
72960;SDS011;61141;46.204;19.774;2023-06-22T15:33:07;6.25;;;4.07;;
72960;SDS011;61141;46.204;19.774;2023-06-22T15:36:10;6.30;;;3.97;;
72960;SDS011;61141;46.204;19.774;2023-06-22T15:39:13;5.85;;;3.80;;
72960;SDS011;61141;46.204;19.774;2023-06-22T15:42:16;7.87;;;4.57;;
72960;SDS011;61141;46.204;19.774;2023-06-22T15:45:18;7.30;;;3.47;;
72960;SDS011;61141;46.204;19.774;2023-06-22T15:48:21;5.68;;;3.67;;
72960;SDS011;61141;46.204;19.774;2023-06-22T15:51:24;6.45;;;4.28;;
72960;SDS011;61141;46.204;19.774;2023-06-22T15:54:27;7.72;;;4.35;;
72960;SDS011;61141;46.204;19.774;2023-06-22T15:57:30;6.30;;;3.90;;
72960;SDS011;61141;46.204;19.774;2023-06-22T16:00:33;5.93;;;3.97;;
72960;SDS011;61141;46.204;19.774;2023-06-22T16:03:36;8.60;;;4.35;;
72960;SDS011;61141;46.204;19.774;2023-06-22T16:06:41;6.07;;;4.25;;
72960;SDS011;61141;46.204;19.774;2023-06-22T16:09:44;6.97;;;3.97;;
72960;SDS011;61141;46.204;19.774;2023-06-22T16:12:47;11.40;;;5.47;;
72960;SDS011;61141;46.204;19.774;2023-06-22T16:15:54;5.97;;;3.57;;
72960;SDS011;61141;46.204;19.774;2023-06-22T16:18:57;7.43;;;5.03;;
72960;SDS011;61141;46.204;19.774;2023-06-22T16:22:00;6.30;;;4.53;;
72960;SDS011;61141;46.204;19.774;2023-06-22T16:25:02;6.75;;;4.10;;
72960;SDS011;61141;46.204;19.774;2023-06-22T16:28:06;6.90;;;4.85;;
72960;SDS011;61141;46.204;19.774;2023-06-22T16:31:08;6.30;;;4.33;;
72960;SDS011;61141;46.204;19.774;2023-06-22T16:34:11;7.00;;;3.78;;
72960;SDS011;61141;46.204;19.774;2023-06-22T16:37:14;6.60;;;4.12;;
72960;SDS011;61141;46.204;19.774;2023-06-22T16:40:17;5.95;;;3.40;;
72960;SDS011;61141;46.204;19.774;2023-06-22T16:43:22;7.18;;;4.85;;
72960;SDS011;61141;46.204;19.774;2023-06-22T16:46:25;7.10;;;4.90;;
72960;SDS011;61141;46.204;19.774;2023-06-22T16:49:28;5.45;;;3.65;;
72960;SDS011;61141;46.204;19.774;2023-06-22T16:52:31;5.47;;;3.47;;
72960;SDS011;61141;46.204;19.774;2023-06-22T16:55:34;6.37;;;3.97;;
72960;SDS011;61141;46.204;19.774;2023-06-22T16:58:39;6.40;;;4.32;;
72960;SDS011;61141;46.204;19.774;2023-06-22T17:01:55;6.37;;;3.97;;
72960;SDS011;61141;46.204;19.774;2023-06-22T17:04:59;5.62;;;3.35;;
72960;SDS011;61141;46.204;19.774;2023-06-22T17:08:02;7.05;;;3.60;;
72960;SDS011;61141;46.204;19.774;2023-06-22T17:11:07;7.47;;;4.45;;
72960;SDS011;61141;46.204;19.774;2023-06-22T17:14:11;6.22;;;4.30;;
72960;SDS011;61141;46.204;19.774;2023-06-22T17:17:17;5.37;;;3.43;;
72960;SDS011;61141;46.204;19.774;2023-06-22T17:20:20;5.43;;;3.22;;
72960;SDS011;61141;46.204;19.774;2023-06-22T17:23:23;6.05;;;4.07;;
72960;SDS011;61141;46.204;19.774;2023-06-22T17:26:27;8.82;;;4.15;;
72960;SDS011;61141;46.204;19.774;2023-06-22T17:29:31;6.00;;;4.03;;
72960;SDS011;61141;46.204;19.774;2023-06-22T17:32:35;6.20;;;4.03;;
72960;SDS011;61141;46.204;19.774;2023-06-22T17:35:45;6.03;;;3.95;;
72960;SDS011;61141;46.204;19.774;2023-06-22T17:38:49;6.50;;;3.92;;
72960;SDS011;61141;46.204;19.774;2023-06-22T17:41:52;6.00;;;3.53;;
72960;SDS011;61141;46.204;19.774;2023-06-22T17:45:00;5.55;;;3.58;;
72960;SDS011;61141;46.204;19.774;2023-06-22T17:48:04;6.50;;;4.67;;
72960;SDS011;61141;46.204;19.774;2023-06-22T17:51:13;5.72;;;3.15;;
72960;SDS011;61141;46.204;19.774;2023-06-22T17:54:16;6.97;;;3.95;;
72960;SDS011;61141;46.204;19.774;2023-06-22T17:57:19;6.53;;;3.70;;
72960;SDS011;61141;46.204;19.774;2023-06-22T18:00:22;5.15;;;2.90;;
72960;SDS011;61141;46.204;19.774;2023-06-22T18:03:25;5.43;;;3.27;;
72960;SDS011;61141;46.204;19.774;2023-06-22T18:06:30;6.22;;;3.15;;
72960;SDS011;61141;46.204;19.774;2023-06-22T18:09:39;5.78;;;3.40;;
72960;SDS011;61141;46.204;19.774;2023-06-22T18:12:42;5.70;;;3.45;;
72960;SDS011;61141;46.204;19.774;2023-06-22T18:15:48;5.55;;;3.22;;
72960;SDS011;61141;46.204;19.774;2023-06-22T18:18:53;5.70;;;3.27;;
72960;SDS011;61141;46.204;19.774;2023-06-22T18:21:57;6.62;;;3.60;;